»·PEaware :: N85AA WA09-KPSC

N85AA :: WA09-KPSC

FLIGHT INFORMATION

Flight Status: Arrived
Operator: Privately registered:
United States
More flights under this callsign
Pilot: Dan A. (12711)
Aircraft: SOCATA TBM-900
(TBM9)
More flights by this aircraft type
Origin: WA09 Roche Harbor
United States
Destination: KPSC Tri-Cities
United States
More flights between these airports :: More routes between these airports
Route: ORCUS V495 SEA V4 YKM V204 GUSSE
File this flight plan on PilotEdge
Remarks:
Altitude:
(Current/Filed)
21,000ft
Speed:
(Current/Filed)
250kts
Departed: 05-Aug-19 03:45 PM
Arrived: 05-Aug-19 04:49 PM
Distance/Time
Traveled:
216nm/1:03
Distance/Time
To Go:
Arrived

Flight Plot

Page will automatically refresh every two minutes.


Map Options




Map Legend


Flown Route
Filed Route
Departure Airport
Arrival Airport
Navaid (VOR, NDB)
Fix

Horizontal Profiles

Position Reports

Time Latitude Longitude Heading Altitude Ground
Speed
05-Aug-19 15:35 48.611591 -123.129922 274 103ft 0kts
05-Aug-19 15:36 48.611591 -123.129922 274 103ft 0kts
05-Aug-19 15:37 48.611591 -123.129922 274 103ft 0kts
05-Aug-19 15:38 48.611591 -123.129922 274 103ft 0kts
05-Aug-19 15:39 48.611591 -123.129922 274 103ft 0kts
05-Aug-19 15:39 48.611591 -123.129923 271 103ft 0kts
05-Aug-19 15:41 48.611591 -123.129923 271 103ft 0kts
05-Aug-19 15:42 48.611591 -123.129923 271 103ft 0kts
05-Aug-19 15:42 48.611591 -123.129923 271 103ft 0kts
05-Aug-19 15:44 48.611591 -123.129923 271 103ft 0kts
05-Aug-19 15:45 48.611223 -123.151214 268 766ft 109kts
05-Aug-19 15:45 48.608357 -123.188219 207 2840ft 112kts
05-Aug-19 15:47 48.573816 -123.186490 171 5776ft 109kts
05-Aug-19 15:47 48.549081 -123.181167 171 7699ft 111kts
05-Aug-19 15:48 48.518585 -123.173992 171 9818ft 114kts
05-Aug-19 15:50 48.481536 -123.164519 171 12083ft 119kts
05-Aug-19 15:50 48.454379 -123.157256 168 13570ft 121kts
05-Aug-19 15:51 48.422616 -123.138906 156 15222ft 126kts
05-Aug-19 15:52 48.384554 -123.130634 179 16444ft 152kts
05-Aug-19 15:53 48.339619 -123.124534 151 18430ft 171kts
05-Aug-19 15:54 48.298953 -123.087197 151 20641ft 174kts
05-Aug-19 15:55 48.249530 -123.041885 151 21128ft 244kts
05-Aug-19 15:56 48.187024 -122.984660 151 21138ft 275kts
05-Aug-19 15:57 48.120452 -122.923915 151 21140ft 282kts
05-Aug-19 15:58 48.052726 -122.862332 152 21145ft 285kts
05-Aug-19 15:59 47.984845 -122.800806 152 21143ft 286kts
05-Aug-19 16:00 47.916639 -122.739166 152 21126ft 286kts
05-Aug-19 16:01 47.848438 -122.677726 152 21119ft 286kts
05-Aug-19 16:02 47.780204 -122.616441 152 21112ft 286kts
05-Aug-19 16:03 47.711881 -122.555269 152 21098ft 286kts
05-Aug-19 16:04 47.643386 -122.494133 152 21088ft 286kts
05-Aug-19 16:05 47.575021 -122.433299 152 21085ft 286kts
05-Aug-19 16:06 47.507908 -122.373763 152 21083ft 286kts
05-Aug-19 16:07 47.440286 -122.313821 150 21082ft 287kts
05-Aug-19 16:08 47.394298 -122.218258 127 21079ft 294kts
05-Aug-19 16:09 47.348871 -122.117371 127 21072ft 294kts
05-Aug-19 16:10 47.303485 -122.017035 127 21077ft 294kts
05-Aug-19 16:11 47.258003 -121.916860 127 21083ft 294kts
05-Aug-19 16:12 47.212345 -121.816661 127 21082ft 294kts
05-Aug-19 16:13 47.166539 -121.716499 127 21078ft 294kts
05-Aug-19 16:14 47.121538 -121.618452 127 21070ft 295kts
05-Aug-19 16:15 47.075590 -121.518700 127 21070ft 294kts
05-Aug-19 16:16 47.029603 -121.419204 127 21071ft 294kts
05-Aug-19 16:17 46.984682 -121.322362 128 21061ft 294kts
05-Aug-19 16:18 46.938437 -121.223035 129 21054ft 294kts
05-Aug-19 16:19 46.893416 -121.126686 129 21055ft 295kts
05-Aug-19 16:20 46.846662 -121.027003 129 21050ft 298kts
05-Aug-19 16:21 46.799286 -120.926317 129 21040ft 301kts
05-Aug-19 16:22 46.752388 -120.827003 129 21029ft 302kts
05-Aug-19 16:23 46.704469 -120.725903 129 21020ft 302kts
05-Aug-19 16:24 46.656637 -120.625343 129 21020ft 302kts
05-Aug-19 16:25 46.608595 -120.524720 129 21020ft 302kts
05-Aug-19 16:26 46.564623 -120.420645 111 21030ft 309kts
05-Aug-19 16:27 46.539695 -120.306421 112 21017ft 309kts
05-Aug-19 16:28 46.513349 -120.187881 112 21017ft 309kts
05-Aug-19 16:29 46.486833 -120.069286 112 21017ft 309kts
05-Aug-19 16:30 46.461436 -119.956168 112 20295ft 267kts
05-Aug-19 16:31 46.439729 -119.860191 112 18729ft 238kts
05-Aug-19 16:32 46.419686 -119.771949 112 17025ft 232kts
05-Aug-19 16:33 46.399287 -119.682357 111 14655ft 235kts
05-Aug-19 16:34 46.378926 -119.593300 111 13003ft 231kts
05-Aug-19 16:35 46.357873 -119.501692 110 12960ft 247kts
05-Aug-19 16:36 46.335312 -119.402909 110 11470ft 249kts
05-Aug-19 16:37 46.314932 -119.316917 110 9681ft 224kts
05-Aug-19 16:38 46.322238 -119.240949 44 7820ft 180kts
05-Aug-19 16:39 46.355633 -119.187186 44 6012ft 188kts
05-Aug-19 16:40 46.391029 -119.130965 44 4227ft 189kts
05-Aug-19 16:41 46.413491 -119.072474 104 3050ft 164kts
05-Aug-19 16:42 46.404385 -119.016825 99 3134ft 139kts
05-Aug-19 16:43 46.376066 -118.980388 187 3448ft 155kts
05-Aug-19 16:44 46.343148 -119.009382 219 3256ft 108kts
05-Aug-19 16:45 46.318931 -119.039589 229 2235ft 111kts
05-Aug-19 16:46 46.297656 -119.070812 231 1401ft 113kts
05-Aug-19 16:47 46.273809 -119.106738 229 614ft 130kts
05-Aug-19 16:48 46.257761 -119.131209 223 413ft 37kts
05-Aug-19 16:49 46.257671 -119.127536 66 413ft 30kts
05-Aug-19 16:50 46.261159 -119.115858 71 413ft 20kts
05-Aug-19 16:51 46.263766 -119.106273 70 413ft 31kts
05-Aug-19 16:52 46.264105 -119.105047 20 413ft 0kts
05-Aug-19 16:53 46.264105 -119.105048 20 413ft 0kts

Navigation Log

Ident Type
Flight plan parsing failed, navigation log unavailable